Thunder radar more information blitzortung!


Radar de pluja more information rain snow radar


Visita la nostra xarxa de llocs de meteo:

Template documentation
and downloads

And another site



No particular awareness of the weather is required.    There are no Weather-warnings

Pagina Historial Weather Underground text

Diari Resum May 23, 2017 Unitats:  Tant    Imperial   Mètric
« Previous Dia
SegĂźent Dia »
Diari Setmana Mensual Anual Personalitzada
  Maxima: Minima: Media:
Temperatura: 86.5 °F /  30.3 °C 57.4 °F /  14.1 °C 74.5 °F /  23.6 °C
Punt de rosada: 60.4 °F /  15.8 °C 49.3 °F /  9.6 °C 53.4 °F /  11.9 °C
Humitat: 80 % 34 % 50 %
Wind Speed: 12.7 mph /  20.4 km/h - 3.9 mph /  6.2 km/h
RĂ fegues de vent: 12.7 mph /  20.4 km/h - -
Vent:- - SSW
Pression baro: 30.2 in /  1021.9 hPa 30 in /  1016.8 hPa -
Precipitacions: 0 in /  0.0 mm    
Historical Graphs
 
 
Dades de taula per May 23, 2017
Temps Temperatura Punt de rosada Pression baro Vent Wind Speed RĂ fegues de vent Humitat Rainfall Rate (Hourly)
00:00 64.2 °F /  17.9 °C 50.9 °F /  10.5 °C 30.1 in /  1018.8 hPa NE 1.2 mph /  1.9 km/h 1.2 mph /  1.9 km/h 62 % 0 in /  0.0 mm
00:05 64 °F /  17.8 °C 50.7 °F /  10.4 °C 30.1 in /  1018.8 hPa Calm     62 % 0 in /  0.0 mm
00:10 63.7 °F /  17.6 °C 50.4 °F /  10.2 °C 30.1 in /  1018.8 hPa SW 1.2 mph /  1.9 km/h 1.2 mph /  1.9 km/h 62 % 0 in /  0.0 mm
00:15 59.5 °F /  15.3 °C 53.1 °F /  11.7 °C 30.1 in /  1019.9 hPa Calm     79 % 0 in /  0.0 mm
00:25 59.4 °F /  15.2 °C 52.9 °F /  11.6 °C 30.1 in /  1019.9 hPa Calm     79 % 0 in /  0.0 mm
00:35 58.6 °F /  14.8 °C 51.8 °F /  11.0 °C 30.1 in /  1019.9 hPa South 1 mph /  1.6 km/h 2 mph /  3.2 km/h 78 % 0 in /  0.0 mm
00:45 57.9 °F /  14.4 °C 51.1 °F /  10.6 °C 30.1 in /  1019.9 hPa SW 2 mph /  3.2 km/h 3 mph /  4.8 km/h 78 % 0 in /  0.0 mm
00:55 57.6 °F /  14.2 °C 51.1 °F /  10.6 °C 30.1 in /  1019.9 hPa SW 2 mph /  3.2 km/h 4 mph /  6.4 km/h 79 % 0 in /  0.0 mm
01:05 58.1 °F /  14.5 °C 51.6 °F /  10.9 °C 30.1 in /  1019.9 hPa WSW 1 mph /  1.6 km/h 2 mph /  3.2 km/h 79 % 0 in /  0.0 mm
01:15 58.1 °F /  14.5 °C 52 °F /  11.1 °C 30.1 in /  1019.9 hPa Calm   2 mph /  3.2 km/h 80 % 0 in /  0.0 mm
01:25 57.7 °F /  14.3 °C 51.6 °F /  10.9 °C 30.2 in /  1020.9 hPa Calm   2 mph /  3.2 km/h 80 % 0 in /  0.0 mm
01:35 57.7 °F /  14.3 °C 51.6 °F /  10.9 °C 30.2 in /  1020.9 hPa Calm   2 mph /  3.2 km/h 80 % 0 in /  0.0 mm
01:45 57.4 °F /  14.1 °C 50.9 °F /  10.5 °C 30.2 in /  1020.9 hPa WSW 2 mph /  3.2 km/h 2 mph /  3.2 km/h 79 % 0 in /  0.0 mm
01:55 57.6 °F /  14.2 °C 51.1 °F /  10.6 °C 30.2 in /  1020.9 hPa WSW 1 mph /  1.6 km/h 3 mph /  4.8 km/h 79 % 0 in /  0.0 mm
02:05 57.6 °F /  14.2 °C 51.4 °F /  10.8 °C 30.2 in /  1020.9 hPa SW 1 mph /  1.6 km/h 2 mph /  3.2 km/h 80 % 0 in /  0.0 mm
02:15 57.7 °F /  14.3 °C 51.6 °F /  10.9 °C 30.2 in /  1020.9 hPa SW 1 mph /  1.6 km/h 2 mph /  3.2 km/h 80 % 0 in /  0.0 mm
02:25 58.5 °F /  14.7 °C 52 °F /  11.1 °C 30.2 in /  1021.9 hPa WSW 2 mph /  3.2 km/h 2 mph /  3.2 km/h 79 % 0 in /  0.0 mm
02:35 59.4 °F /  15.2 °C 52.9 °F /  11.6 °C 30.2 in /  1021.9 hPa SW 2 mph /  3.2 km/h 2 mph /  3.2 km/h 79 % 0 in /  0.0 mm
02:45 60.1 °F /  15.6 °C 53.2 °F /  11.8 °C 30.2 in /  1021.9 hPa SW 1 mph /  1.6 km/h 2 mph /  3.2 km/h 78 % 0 in /  0.0 mm
02:55 60.6 °F /  15.9 °C 53.4 °F /  11.9 °C 30.2 in /  1020.9 hPa SW 2 mph /  3.2 km/h 2 mph /  3.2 km/h 77 % 0 in /  0.0 mm
03:05 61.3 °F /  16.3 °C 54.1 °F /  12.3 °C 30.2 in /  1020.9 hPa SW 2 mph /  3.2 km/h 2 mph /  3.2 km/h 77 % 0 in /  0.0 mm
03:15 62.1 °F /  16.7 °C 54.3 °F /  12.4 °C 30.2 in /  1021.9 hPa SW 1 mph /  1.6 km/h 2 mph /  3.2 km/h 76 % 0 in /  0.0 mm
03:25 62.8 °F /  17.1 °C 54.7 °F /  12.6 °C 30.2 in /  1021.9 hPa SW 1 mph /  1.6 km/h 2 mph /  3.2 km/h 75 % 0 in /  0.0 mm
03:35 64.2 °F /  17.9 °C 55.8 °F /  13.2 °C 30.2 in /  1021.9 hPa Calm   3 mph /  4.8 km/h 74 % 0 in /  0.0 mm
03:45 65.1 °F /  18.4 °C 56.1 °F /  13.4 °C 30.2 in /  1021.9 hPa SSW 1 mph /  1.6 km/h 2 mph /  3.2 km/h 73 % 0 in /  0.0 mm
03:55 66.6 °F /  19.2 °C 56.8 °F /  13.8 °C 30.2 in /  1021.9 hPa NE 1 mph /  1.6 km/h 3 mph /  4.8 km/h 71 % 0 in /  0.0 mm
04:05 66.9 °F /  19.4 °C 56.5 °F /  13.6 °C 30.2 in /  1021.9 hPa East 1 mph /  1.6 km/h 2 mph /  3.2 km/h 69 % 0 in /  0.0 mm
04:15 67.6 °F /  19.8 °C 56.3 °F /  13.5 °C 30.2 in /  1021.9 hPa ESE 2 mph /  3.2 km/h 4 mph /  6.4 km/h 67 % 0 in /  0.0 mm
04:25 68.2 °F /  20.1 °C 56.5 °F /  13.6 °C 30.2 in /  1021.9 hPa East 1 mph /  1.6 km/h 3 mph /  4.8 km/h 66 % 0 in /  0.0 mm
04:35 70 °F /  21.1 °C 57.7 °F /  14.3 °C 30.2 in /  1021.9 hPa East 1 mph /  1.6 km/h 2 mph /  3.2 km/h 65 % 0 in /  0.0 mm
04:45 70.2 °F /  21.2 °C 57.4 °F /  14.1 °C 30.2 in /  1021.9 hPa Calm   3 mph /  4.8 km/h 64 % 0 in /  0.0 mm
04:55 71.6 °F /  22.0 °C 57.4 °F /  14.1 °C 30.2 in /  1021.9 hPa SSW 2 mph /  3.2 km/h 3 mph /  4.8 km/h 61 % 0 in /  0.0 mm
05:05 72.3 °F /  22.4 °C 57.7 °F /  14.3 °C 30.2 in /  1021.9 hPa SSW 2 mph /  3.2 km/h 3 mph /  4.8 km/h 60 % 0 in /  0.0 mm
05:15 73 °F /  22.8 °C 57.9 °F /  14.4 °C 30.2 in /  1021.9 hPa SW 1 mph /  1.6 km/h 3 mph /  4.8 km/h 59 % 0 in /  0.0 mm
05:25 73.9 °F /  23.3 °C 58.6 °F /  14.8 °C 30.2 in /  1021.9 hPa SSW 1 mph /  1.6 km/h 2 mph /  3.2 km/h 59 % 0 in /  0.0 mm
05:35 74.7 °F /  23.7 °C 58.5 °F /  14.7 °C 30.2 in /  1021.9 hPa ENE 3 mph /  4.8 km/h 3 mph /  4.8 km/h 57 % 0 in /  0.0 mm
05:45 75.7 °F /  24.3 °C 58.8 °F /  14.9 °C 30.2 in /  1020.9 hPa NE 2 mph /  3.2 km/h 2 mph /  3.2 km/h 56 % 0 in /  0.0 mm
10:49 76.5 °F /  24.7 °C 58.6 °F /  14.8 °C 30.2 in /  1020.9 hPa SSW 3.3 mph /  5.3 km/h 3.3 mph /  5.3 km/h 54 % 0 in /  0.0 mm
10:54 77.4 °F /  25.2 °C 58.8 °F /  14.9 °C 30.2 in /  1021.9 hPa SW 2.3 mph /  3.7 km/h 2.3 mph /  3.7 km/h 53 % 0 in /  0.0 mm
10:59 77.2 °F /  25.1 °C 58.3 °F /  14.6 °C 30.2 in /  1021.9 hPa SE 2.3 mph /  3.7 km/h 2.3 mph /  3.7 km/h 52 % 0 in /  0.0 mm
11:04 78.4 °F /  25.8 °C 59.4 °F /  15.2 °C 30.2 in /  1021.9 hPa SW 2.3 mph /  3.7 km/h 2.3 mph /  3.7 km/h 52 % 0 in /  0.0 mm
11:09 78.1 °F /  25.6 °C 57.9 °F /  14.4 °C 30.2 in /  1020.9 hPa ESE 3.5 mph /  5.6 km/h 3.5 mph /  5.6 km/h 50 % 0 in /  0.0 mm
11:14 78.8 °F /  26.0 °C 59.2 °F /  15.1 °C 30.2 in /  1020.9 hPa WSW 2.3 mph /  3.7 km/h 2.3 mph /  3.7 km/h 51 % 0 in /  0.0 mm
11:19 77.9 °F /  25.5 °C 58.3 °F /  14.6 °C 30.2 in /  1020.9 hPa WSW 5.8 mph /  9.3 km/h 5.8 mph /  9.3 km/h 51 % 0 in /  0.0 mm
11:24 77.9 °F /  25.5 °C 58.3 °F /  14.6 °C 30.2 in /  1021.9 hPa SW 5.8 mph /  9.3 km/h 5.8 mph /  9.3 km/h 51 % 0 in /  0.0 mm
11:29 78.4 °F /  25.8 °C 58.3 °F /  14.6 °C 30.2 in /  1021.9 hPa WNW 4.6 mph /  7.4 km/h 4.6 mph /  7.4 km/h 50 % 0 in /  0.0 mm
11:34 79.7 °F /  26.5 °C 59.4 °F /  15.2 °C 30.2 in /  1021.9 hPa WSW 3.5 mph /  5.6 km/h 3.5 mph /  5.6 km/h 50 % 0 in /  0.0 mm
11:39 79.3 °F /  26.3 °C 59.2 °F /  15.1 °C 30.2 in /  1021.9 hPa SW 4.6 mph /  7.4 km/h 4.6 mph /  7.4 km/h 50 % 0 in /  0.0 mm
11:44 79.7 °F /  26.5 °C 58.8 °F /  14.9 °C 30.2 in /  1021.9 hPa WSW 3.5 mph /  5.6 km/h 3.5 mph /  5.6 km/h 49 % 0 in /  0.0 mm
11:49 80.8 °F /  27.1 °C 59.4 °F /  15.2 °C 30.2 in /  1021.9 hPa ESE 2.3 mph /  3.7 km/h 2.3 mph /  3.7 km/h 48 % 0 in /  0.0 mm
11:54 81.3 °F /  27.4 °C 59.2 °F /  15.1 °C 30.2 in /  1021.9 hPa South 3.5 mph /  5.6 km/h 3.5 mph /  5.6 km/h 47 % 0 in /  0.0 mm
11:59 81 °F /  27.2 °C 58.8 °F /  14.9 °C 30.2 in /  1021.9 hPa North 3.5 mph /  5.6 km/h 3.5 mph /  5.6 km/h 47 % 0 in /  0.0 mm
12:04 81.7 °F /  27.6 °C 58.8 °F /  14.9 °C 30.2 in /  1021.9 hPa SW 2.3 mph /  3.7 km/h 2.3 mph /  3.7 km/h 46 % 0 in /  0.0 mm
12:09 81.3 °F /  27.4 °C 58.6 °F /  14.8 °C 30.2 in /  1020.9 hPa SW 4.6 mph /  7.4 km/h 4.6 mph /  7.4 km/h 46 % 0 in /  0.0 mm
12:14 81.9 °F /  27.7 °C 59.2 °F /  15.1 °C 30.2 in /  1020.9 hPa West 2.3 mph /  3.7 km/h 2.3 mph /  3.7 km/h 46 % 0 in /  0.0 mm
12:19 83.3 °F /  28.5 °C 60.4 °F /  15.8 °C 30.2 in /  1020.9 hPa WNW 4.6 mph /  7.4 km/h 4.6 mph /  7.4 km/h 46 % 0 in /  0.0 mm
12:24 83.8 °F /  28.8 °C 60.3 °F /  15.7 °C 30.1 in /  1019.9 hPa ESE 1.4 mph /  2.3 km/h 1.4 mph /  2.3 km/h 45 % 0 in /  0.0 mm
12:29 83.7 °F /  28.7 °C 60.1 °F /  15.6 °C 30.1 in /  1019.9 hPa South 2.3 mph /  3.7 km/h 2.3 mph /  3.7 km/h 45 % 0 in /  0.0 mm
12:34 84.6 °F /  29.2 °C 59.5 °F /  15.3 °C 30.1 in /  1019.9 hPa SSW 2.3 mph /  3.7 km/h 2.3 mph /  3.7 km/h 43 % 0 in /  0.0 mm
12:35 84.6 °F /  29.2 °C 59.5 °F /  15.3 °C 30.1 in /  1019.9 hPa SSE 2.3 mph /  3.7 km/h 2.3 mph /  3.7 km/h 43 % 0 in /  0.0 mm
12:40 84.7 °F /  29.3 °C 59.7 °F /  15.4 °C 30.1 in /  1019.9 hPa SW 2.3 mph /  3.7 km/h 2.3 mph /  3.7 km/h 43 % 0 in /  0.0 mm
12:45 84.7 °F /  29.3 °C 57.7 °F /  14.3 °C 30.1 in /  1019.9 hPa SSW 6.9 mph /  11.1 km/h 6.9 mph /  11.1 km/h 40 % 0 in /  0.0 mm
12:50 84.2 °F /  29.0 °C 57.4 °F /  14.1 °C 30.1 in /  1019.9 hPa East 3.5 mph /  5.6 km/h 3.5 mph /  5.6 km/h 40 % 0 in /  0.0 mm
12:55 83.5 °F /  28.6 °C 57.9 °F /  14.4 °C 30.1 in /  1019.9 hPa South 2.3 mph /  3.7 km/h 2.3 mph /  3.7 km/h 42 % 0 in /  0.0 mm
13:00 84.7 °F /  29.3 °C 58.5 °F /  14.7 °C 30.1 in /  1019.9 hPa West 4.6 mph /  7.4 km/h 4.6 mph /  7.4 km/h 41 % 0 in /  0.0 mm
13:05 85.6 °F /  29.8 °C 59.2 °F /  15.1 °C 30.1 in /  1019.9 hPa West 3.5 mph /  5.6 km/h 3.5 mph /  5.6 km/h 41 % 0 in /  0.0 mm
13:10 84.7 °F /  29.3 °C 57.7 °F /  14.3 °C 30.1 in /  1019.9 hPa WSW 4.6 mph /  7.4 km/h 4.6 mph /  7.4 km/h 40 % 0 in /  0.0 mm
13:15 84.2 °F /  29.0 °C 56.7 °F /  13.7 °C 30.1 in /  1019.9 hPa WSW 3.5 mph /  5.6 km/h 3.5 mph /  5.6 km/h 39 % 0 in /  0.0 mm
13:20 83.8 °F /  28.8 °C 56.1 °F /  13.4 °C 30.1 in /  1019.9 hPa ENE 2.3 mph /  3.7 km/h 2.3 mph /  3.7 km/h 39 % 0 in /  0.0 mm
13:25 82.6 °F /  28.1 °C 55 °F /  12.8 °C 30.1 in /  1019.9 hPa East 4.6 mph /  7.4 km/h 4.6 mph /  7.4 km/h 39 % 0 in /  0.0 mm
13:30 82.9 °F /  28.3 °C 56.1 °F /  13.4 °C 30.1 in /  1019.9 hPa ENE 4.6 mph /  7.4 km/h 4.6 mph /  7.4 km/h 40 % 0 in /  0.0 mm
13:35 84.2 °F /  29.0 °C 56.7 °F /  13.7 °C 30.1 in /  1019.9 hPa SW 2.3 mph /  3.7 km/h 2.3 mph /  3.7 km/h 39 % 0 in /  0.0 mm
13:37 84.4 °F /  29.1 °C 56.7 °F /  13.7 °C 30.1 in /  1019.9 hPa SW 5.8 mph /  9.3 km/h 5.8 mph /  9.3 km/h 39 % 0 in /  0.0 mm
13:42 85.6 °F /  29.8 °C 57 °F /  13.9 °C 30.1 in /  1019.9 hPa SW 6.2 mph /  10.0 km/h 6.2 mph /  10.0 km/h 38 % 0 in /  0.0 mm
13:47 85.8 °F /  29.9 °C 56.5 °F /  13.6 °C 30.1 in /  1019.9 hPa WSW 5.8 mph /  9.3 km/h 5.8 mph /  9.3 km/h 37 % 0 in /  0.0 mm
13:52 86 °F /  30.0 °C 56.7 °F /  13.7 °C 30.1 in /  1019.9 hPa SW 3.6 mph /  5.8 km/h 3.6 mph /  5.8 km/h 37 % 0 in /  0.0 mm
13:57 85.8 °F /  29.9 °C 56.5 °F /  13.6 °C 30.1 in /  1019.9 hPa WSW 4.6 mph /  7.4 km/h 4.6 mph /  7.4 km/h 37 % 0 in /  0.0 mm
14:02 85.1 °F /  29.5 °C 55.9 °F /  13.3 °C 30.1 in /  1019.9 hPa NW 3.5 mph /  5.6 km/h 3.5 mph /  5.6 km/h 37 % 0 in /  0.0 mm
14:07 84.9 °F /  29.4 °C 55 °F /  12.8 °C 30.1 in /  1019.9 hPa SE 4.6 mph /  7.4 km/h 4.6 mph /  7.4 km/h 36 % 0 in /  0.0 mm
14:12 86.2 °F /  30.1 °C 55.2 °F /  12.9 °C 30.1 in /  1019.9 hPa ESE 3.8 mph /  6.1 km/h 3.8 mph /  6.1 km/h 35 % 0 in /  0.0 mm
14:17 84.2 °F /  29.0 °C 52.9 °F /  11.6 °C 30.1 in /  1019.9 hPa ESE 6.2 mph /  10.0 km/h 6.2 mph /  10.0 km/h 34 % 0 in /  0.0 mm
14:22 83.5 °F /  28.6 °C 53.8 °F /  12.1 °C 30.1 in /  1019.9 hPa South 6.9 mph /  11.1 km/h 6.9 mph /  11.1 km/h 36 % 0 in /  0.0 mm
14:27 85.5 °F /  29.7 °C 54 °F /  12.2 °C 30.1 in /  1019.9 hPa SSW 4.6 mph /  7.4 km/h 4.6 mph /  7.4 km/h 34 % 0 in /  0.0 mm
14:32 86 °F /  30.0 °C 54.3 °F /  12.4 °C 30.1 in /  1019.9 hPa NW 3.5 mph /  5.6 km/h 3.5 mph /  5.6 km/h 34 % 0 in /  0.0 mm
14:37 85.3 °F /  29.6 °C 55.2 °F /  12.9 °C 30.1 in /  1019.9 hPa ESE 9.2 mph /  14.8 km/h 9.2 mph /  14.8 km/h 36 % 0 in /  0.0 mm
14:42 83.5 °F /  28.6 °C 53.8 °F /  12.1 °C 30.1 in /  1019.9 hPa NE 5.8 mph /  9.3 km/h 5.8 mph /  9.3 km/h 36 % 0 in /  0.0 mm
14:47 83.5 °F /  28.6 °C 55.2 °F /  12.9 °C 30.1 in /  1019.9 hPa ENE 11.5 mph /  18.5 km/h 11.5 mph /  18.5 km/h 38 % 0 in /  0.0 mm
14:52 83.1 °F /  28.4 °C 54.9 °F /  12.7 °C 30.1 in /  1019.9 hPa East 10.7 mph /  17.2 km/h 10.7 mph /  17.2 km/h 38 % 0 in /  0.0 mm
14:57 83.7 °F /  28.7 °C 55.4 °F /  13.0 °C 30.1 in /  1019.9 hPa SE 2.3 mph /  3.7 km/h 2.3 mph /  3.7 km/h 38 % 0 in /  0.0 mm
15:02 82.9 °F /  28.3 °C 54.7 °F /  12.6 °C 30.1 in /  1019.9 hPa SE 4.6 mph /  7.4 km/h 4.6 mph /  7.4 km/h 38 % 0 in /  0.0 mm
15:07 83.3 °F /  28.5 °C 55 °F /  12.8 °C 30.1 in /  1018.8 hPa SSW 5.8 mph /  9.3 km/h 5.8 mph /  9.3 km/h 38 % 0 in /  0.0 mm
15:12 83.7 °F /  28.7 °C 55.4 °F /  13.0 °C 30.1 in /  1018.8 hPa NE 3.5 mph /  5.6 km/h 3.5 mph /  5.6 km/h 38 % 0 in /  0.0 mm
15:17 83.1 °F /  28.4 °C 54.9 °F /  12.7 °C 30.1 in /  1018.8 hPa ESE 2.3 mph /  3.7 km/h 2.3 mph /  3.7 km/h 38 % 0 in /  0.0 mm
15:22 83.5 °F /  28.6 °C 55.2 °F /  12.9 °C 30.1 in /  1018.8 hPa SW 3.5 mph /  5.6 km/h 3.5 mph /  5.6 km/h 38 % 0 in /  0.0 mm
15:27 85.5 °F /  29.7 °C 56.1 °F /  13.4 °C 30.1 in /  1018.8 hPa SW 6.7 mph /  10.8 km/h 6.7 mph /  10.8 km/h 37 % 0 in /  0.0 mm
15:32 85.8 °F /  29.9 °C 56.5 °F /  13.6 °C 30.1 in /  1018.8 hPa South 10.4 mph /  16.7 km/h 10.4 mph /  16.7 km/h 37 % 0 in /  0.0 mm
15:37 86.5 °F /  30.3 °C 55.6 °F /  13.1 °C 30.1 in /  1018.8 hPa SSE 9.2 mph /  14.8 km/h 9.2 mph /  14.8 km/h 35 % 0 in /  0.0 mm
15:42 86 °F /  30.0 °C 55.2 °F /  12.9 °C 30.1 in /  1018.8 hPa SSW 7.1 mph /  11.4 km/h 7.1 mph /  11.4 km/h 35 % 0 in /  0.0 mm
15:47 86.4 °F /  30.2 °C 55.6 °F /  13.1 °C 30.1 in /  1018.8 hPa SSW 9.2 mph /  14.8 km/h 9.2 mph /  14.8 km/h 35 % 0 in /  0.0 mm
15:52 86.2 °F /  30.1 °C 55.2 °F /  12.9 °C 30.1 in /  1018.8 hPa South 6.9 mph /  11.1 km/h 6.9 mph /  11.1 km/h 35 % 0 in /  0.0 mm
15:57 85.6 °F /  29.8 °C 55.6 °F /  13.1 °C 30.1 in /  1018.8 hPa SSE 12.7 mph /  20.4 km/h 12.7 mph /  20.4 km/h 36 % 0 in /  0.0 mm
16:02 85.6 °F /  29.8 °C 54.9 °F /  12.7 °C 30.1 in /  1018.8 hPa SW 10.4 mph /  16.7 km/h 10.4 mph /  16.7 km/h 35 % 0 in /  0.0 mm
16:07 85.3 °F /  29.6 °C 55.2 °F /  12.9 °C 30.1 in /  1018.8 hPa WSW 9.2 mph /  14.8 km/h 9.2 mph /  14.8 km/h 36 % 0 in /  0.0 mm
16:12 84.6 °F /  29.2 °C 54 °F /  12.2 °C 30.1 in /  1018.8 hPa South 9.2 mph /  14.8 km/h 9.2 mph /  14.8 km/h 35 % 0 in /  0.0 mm
16:17 84.7 °F /  29.3 °C 54.1 °F /  12.3 °C 30.1 in /  1018.8 hPa SSW 10.4 mph /  16.7 km/h 10.4 mph /  16.7 km/h 35 % 0 in /  0.0 mm
16:22 84.2 °F /  29.0 °C 53.6 °F /  12.0 °C 30.1 in /  1018.8 hPa South 9.2 mph /  14.8 km/h 9.2 mph /  14.8 km/h 35 % 0 in /  0.0 mm
16:27 84.2 °F /  29.0 °C 53.6 °F /  12.0 °C 30.1 in /  1018.8 hPa WSW 8.5 mph /  13.7 km/h 8.5 mph /  13.7 km/h 35 % 0 in /  0.0 mm
16:32 84.2 °F /  29.0 °C 53.6 °F /  12.0 °C 30.1 in /  1018.8 hPa SW 8.1 mph /  13.0 km/h 8.1 mph /  13.0 km/h 35 % 0 in /  0.0 mm
16:37 84.2 °F /  29.0 °C 53.6 °F /  12.0 °C 30.1 in /  1018.8 hPa South 5.8 mph /  9.3 km/h 5.8 mph /  9.3 km/h 35 % 0 in /  0.0 mm
16:42 84.2 °F /  29.0 °C 53.6 °F /  12.0 °C 30.1 in /  1018.8 hPa SW 4.6 mph /  7.4 km/h 4.6 mph /  7.4 km/h 35 % 0 in /  0.0 mm
16:47 84.6 °F /  29.2 °C 54 °F /  12.2 °C 30.1 in /  1018.8 hPa SW 6.4 mph /  10.3 km/h 6.4 mph /  10.3 km/h 35 % 0 in /  0.0 mm
16:52 84.2 °F /  29.0 °C 53.6 °F /  12.0 °C 30.1 in /  1018.8 hPa SW 7.8 mph /  12.6 km/h 7.8 mph /  12.6 km/h 35 % 0 in /  0.0 mm
16:57 83.7 °F /  28.7 °C 54 °F /  12.2 °C 30.1 in /  1018.8 hPa WSW 9.2 mph /  14.8 km/h 9.2 mph /  14.8 km/h 36 % 0 in /  0.0 mm
17:02 83.7 °F /  28.7 °C 53.1 °F /  11.7 °C 30.1 in /  1018.8 hPa West 5.8 mph /  9.3 km/h 5.8 mph /  9.3 km/h 35 % 0 in /  0.0 mm
17:07 83.3 °F /  28.5 °C 52.9 °F /  11.6 °C 30.1 in /  1017.8 hPa SW 6.9 mph /  11.1 km/h 6.9 mph /  11.1 km/h 35 % 0 in /  0.0 mm
17:12 83.1 °F /  28.4 °C 52.5 °F /  11.4 °C 30.1 in /  1017.8 hPa WSW 9.2 mph /  14.8 km/h 9.2 mph /  14.8 km/h 35 % 0 in /  0.0 mm
17:17 83.3 °F /  28.5 °C 53.6 °F /  12.0 °C 30.1 in /  1017.8 hPa WNW 5.8 mph /  9.3 km/h 5.8 mph /  9.3 km/h 36 % 0 in /  0.0 mm
17:18 83.1 °F /  28.4 °C 53.4 °F /  11.9 °C 30.1 in /  1017.8 hPa SW 5.8 mph /  9.3 km/h 5.8 mph /  9.3 km/h 36 % 0 in /  0.0 mm
17:23 82.4 °F /  28.0 °C 52 °F /  11.1 °C 30.1 in /  1017.8 hPa WSW 9.2 mph /  14.8 km/h 9.2 mph /  14.8 km/h 35 % 0 in /  0.0 mm
17:28 81.7 °F /  27.6 °C 51.4 °F /  10.8 °C 30.1 in /  1017.8 hPa SSW 8.1 mph /  13.0 km/h 8.1 mph /  13.0 km/h 35 % 0 in /  0.0 mm
17:33 81.7 °F /  27.6 °C 52.2 °F /  11.2 °C 30.1 in /  1017.8 hPa WSW 8.1 mph /  13.0 km/h 8.1 mph /  13.0 km/h 36 % 0 in /  0.0 mm
17:34 81.7 °F /  27.6 °C 52.2 °F /  11.2 °C 30.1 in /  1017.8 hPa SSW 8.1 mph /  13.0 km/h 8.1 mph /  13.0 km/h 36 % 0 in /  0.0 mm
17:39 81.5 °F /  27.5 °C 51.3 °F /  10.7 °C 30.1 in /  1018.8 hPa SSW 10.4 mph /  16.7 km/h 10.4 mph /  16.7 km/h 35 % 0 in /  0.0 mm
17:44 81.5 °F /  27.5 °C 51.3 °F /  10.7 °C 30.1 in /  1018.8 hPa WSW 8.1 mph /  13.0 km/h 8.1 mph /  13.0 km/h 35 % 0 in /  0.0 mm
17:49 81.1 °F /  27.3 °C 51.6 °F /  10.9 °C 30.1 in /  1018.8 hPa SSW 10.4 mph /  16.7 km/h 10.4 mph /  16.7 km/h 36 % 0 in /  0.0 mm
17:54 81.5 °F /  27.5 °C 52 °F /  11.1 °C 30.1 in /  1017.8 hPa SW 5.8 mph /  9.3 km/h 5.8 mph /  9.3 km/h 36 % 0 in /  0.0 mm
17:59 81.7 °F /  27.6 °C 52.2 °F /  11.2 °C 30.1 in /  1017.8 hPa SSW 6.9 mph /  11.1 km/h 6.9 mph /  11.1 km/h 36 % 0 in /  0.0 mm
18:04 81.1 °F /  27.3 °C 51.6 °F /  10.9 °C 30.1 in /  1017.8 hPa SW 9.2 mph /  14.8 km/h 9.2 mph /  14.8 km/h 36 % 0 in /  0.0 mm
18:09 81 °F /  27.2 °C 51.4 °F /  10.8 °C 30.1 in /  1017.8 hPa SW 4.6 mph /  7.4 km/h 4.6 mph /  7.4 km/h 36 % 0 in /  0.0 mm
18:14 80.6 °F /  27.0 °C 50.4 °F /  10.2 °C 30.1 in /  1017.8 hPa SSW 9.4 mph /  15.1 km/h 9.4 mph /  15.1 km/h 35 % 0 in /  0.0 mm
18:19 80.4 °F /  26.9 °C 51.1 °F /  10.6 °C 30.1 in /  1017.8 hPa SW 7.6 mph /  12.2 km/h 7.6 mph /  12.2 km/h 36 % 0 in /  0.0 mm
18:24 80.6 °F /  27.0 °C 51.3 °F /  10.7 °C 30.1 in /  1017.8 hPa SW 6.9 mph /  11.1 km/h 6.9 mph /  11.1 km/h 36 % 0 in /  0.0 mm
18:29 80.4 °F /  26.9 °C 51.8 °F /  11.0 °C 30.1 in /  1017.8 hPa West 6.9 mph /  11.1 km/h 6.9 mph /  11.1 km/h 37 % 0 in /  0.0 mm
18:34 80.1 °F /  26.7 °C 50.7 °F /  10.4 °C 30.1 in /  1017.8 hPa SW 9.2 mph /  14.8 km/h 9.2 mph /  14.8 km/h 36 % 0 in /  0.0 mm
18:39 79.7 °F /  26.5 °C 50.4 °F /  10.2 °C 30.1 in /  1017.8 hPa SW 6.9 mph /  11.1 km/h 6.9 mph /  11.1 km/h 36 % 0 in /  0.0 mm
18:44 80.1 °F /  26.7 °C 50.7 °F /  10.4 °C 30.1 in /  1017.8 hPa WSW 4.6 mph /  7.4 km/h 4.6 mph /  7.4 km/h 36 % 0 in /  0.0 mm
18:49 80.2 °F /  26.8 °C 51.6 °F /  10.9 °C 30.1 in /  1017.8 hPa SW 3.5 mph /  5.6 km/h 3.5 mph /  5.6 km/h 37 % 0 in /  0.0 mm
18:54 80.2 °F /  26.8 °C 51.6 °F /  10.9 °C 30.1 in /  1017.8 hPa South 3.5 mph /  5.6 km/h 3.5 mph /  5.6 km/h 37 % 0 in /  0.0 mm
18:59 79.5 °F /  26.4 °C 50.2 °F /  10.1 °C 30.1 in /  1017.8 hPa WSW 6.9 mph /  11.1 km/h 6.9 mph /  11.1 km/h 36 % 0 in /  0.0 mm
19:05 79.5 °F /  26.4 °C 51.1 °F /  10.6 °C 30.1 in /  1017.8 hPa SW 2 mph /  3.2 km/h 7 mph /  11.3 km/h 37 % 0 in /  0.0 mm
19:10 79.7 °F /  26.5 °C 51.3 °F /  10.7 °C 30.1 in /  1017.8 hPa SW 3 mph /  4.8 km/h 5 mph /  8.0 km/h 37 % 0 in /  0.0 mm
19:15 79.2 °F /  26.2 °C 50.5 °F /  10.3 °C 30.1 in /  1017.8 hPa SW 5 mph /  8.0 km/h 8 mph /  12.9 km/h 37 % 0 in /  0.0 mm
19:20 78.8 °F /  26.0 °C 51.1 °F /  10.6 °C 30.1 in /  1017.8 hPa SW 2 mph /  3.2 km/h 7 mph /  11.3 km/h 38 % 0 in /  0.0 mm
19:25 78.1 °F /  25.6 °C 50.4 °F /  10.2 °C 30.1 in /  1017.8 hPa SW 9.2 mph /  14.8 km/h 9.2 mph /  14.8 km/h 38 % 0 in /  0.0 mm
19:30 77.5 °F /  25.3 °C 49.8 °F /  9.9 °C 30.1 in /  1017.8 hPa SW 5.8 mph /  9.3 km/h 5.8 mph /  9.3 km/h 38 % 0 in /  0.0 mm
19:35 77.4 °F /  25.2 °C 49.8 °F /  9.9 °C 30.1 in /  1017.8 hPa WSW 6.9 mph /  11.1 km/h 6.9 mph /  11.1 km/h 38 % 0 in /  0.0 mm
19:40 77.4 °F /  25.2 °C 49.8 °F /  9.9 °C 30.1 in /  1017.8 hPa SW 4.6 mph /  7.4 km/h 4.6 mph /  7.4 km/h 38 % 0 in /  0.0 mm
19:45 65.5 °F /  18.6 °C 52.2 °F /  11.2 °C 30.1 in /  1019.9 hPa WSW 2 mph /  3.2 km/h 3 mph /  4.8 km/h 62 % 0 in /  0.0 mm
19:46 77.2 °F /  25.1 °C 49.6 °F /  9.8 °C 30.1 in /  1017.8 hPa SW 3.5 mph /  5.6 km/h 3.5 mph /  5.6 km/h 38 % 0 in /  0.0 mm
19:51 77 °F /  25.0 °C 50.2 °F /  10.1 °C 30.1 in /  1017.8 hPa SW 4.6 mph /  7.4 km/h 4.6 mph /  7.4 km/h 39 % 0 in /  0.0 mm
19:55 65.3 °F /  18.5 °C 52.3 °F /  11.3 °C 30.1 in /  1019.9 hPa WSW 1 mph /  1.6 km/h 3 mph /  4.8 km/h 63 % 0 in /  0.0 mm
19:56 76.5 °F /  24.7 °C 50.4 °F /  10.2 °C 30.1 in /  1017.8 hPa SW 5.8 mph /  9.3 km/h 5.8 mph /  9.3 km/h 40 % 0 in /  0.0 mm
20:01 76.1 °F /  24.5 °C 50 °F /  10.0 °C 30.1 in /  1017.8 hPa SW 4.6 mph /  7.4 km/h 4.6 mph /  7.4 km/h 40 % 0 in /  0.0 mm
20:05 65.1 °F /  18.4 °C 52.5 °F /  11.4 °C 30.1 in /  1019.9 hPa WSW 1 mph /  1.6 km/h 2 mph /  3.2 km/h 64 % 0 in /  0.0 mm
20:06 75.7 °F /  24.3 °C 49.6 °F /  9.8 °C 30.1 in /  1017.8 hPa SSW 4.6 mph /  7.4 km/h 4.6 mph /  7.4 km/h 40 % 0 in /  0.0 mm
20:11 75.6 °F /  24.2 °C 50.2 °F /  10.1 °C 30.1 in /  1017.8 hPa SSW 6.9 mph /  11.1 km/h 6.9 mph /  11.1 km/h 41 % 0 in /  0.0 mm
20:15 64.9 °F /  18.3 °C 52 °F /  11.1 °C 30.1 in /  1019.9 hPa SW 2 mph /  3.2 km/h 2 mph /  3.2 km/h 63 % 0 in /  0.0 mm
20:16 75 °F /  23.9 °C 49.6 °F /  9.8 °C 30.1 in /  1017.8 hPa SW 6.9 mph /  11.1 km/h 6.9 mph /  11.1 km/h 41 % 0 in /  0.0 mm
20:21 74.8 °F /  23.8 °C 49.6 °F /  9.8 °C 30.1 in /  1017.8 hPa SW 5.8 mph /  9.3 km/h 5.8 mph /  9.3 km/h 41 % 0 in /  0.0 mm
20:25 64.8 °F /  18.2 °C 52.3 °F /  11.3 °C 30.1 in /  1019.9 hPa Calm   2 mph /  3.2 km/h 64 % 0 in /  0.0 mm
20:26 74.3 °F /  23.5 °C 49.6 °F /  9.8 °C 30 in /  1016.8 hPa SW 4.6 mph /  7.4 km/h 4.6 mph /  7.4 km/h 42 % 0 in /  0.0 mm
20:31 73.8 °F /  23.2 °C 49.3 °F /  9.6 °C 30 in /  1016.8 hPa SW 4.6 mph /  7.4 km/h 4.6 mph /  7.4 km/h 42 % 0 in /  0.0 mm
20:35 64.8 °F /  18.2 °C 52.3 °F /  11.3 °C 30.1 in /  1019.9 hPa West 1 mph /  1.6 km/h 1 mph /  1.6 km/h 64 % 0 in /  0.0 mm
20:36 73.4 °F /  23.0 °C 49.5 °F /  9.7 °C 30 in /  1016.8 hPa SW 8.7 mph /  14.0 km/h 8.7 mph /  14.0 km/h 43 % 0 in /  0.0 mm
20:41 73.2 °F /  22.9 °C 50 °F /  10.0 °C 30.1 in /  1017.8 hPa SSW 7.1 mph /  11.4 km/h 7.1 mph /  11.4 km/h 44 % 0 in /  0.0 mm
20:45 64.8 °F /  18.2 °C 52.7 °F /  11.5 °C 30.1 in /  1019.9 hPa West 1 mph /  1.6 km/h 1 mph /  1.6 km/h 65 % 0 in /  0.0 mm
20:46 72.9 °F /  22.7 °C 50.4 °F /  10.2 °C 30.1 in /  1017.8 hPa SW 5.8 mph /  9.3 km/h 5.8 mph /  9.3 km/h 45 % 0 in /  0.0 mm
20:51 72.5 °F /  22.5 °C 49.8 °F /  9.9 °C 30.1 in /  1017.8 hPa West 5.8 mph /  9.3 km/h 5.8 mph /  9.3 km/h 45 % 0 in /  0.0 mm
20:55 64.6 °F /  18.1 °C 52.5 °F /  11.4 °C 30.1 in /  1019.9 hPa Calm   1 mph /  1.6 km/h 65 % 0 in /  0.0 mm
20:56 72.1 °F /  22.3 °C 50.2 °F /  10.1 °C 30.1 in /  1017.8 hPa West 5.8 mph /  9.3 km/h 5.8 mph /  9.3 km/h 46 % 0 in /  0.0 mm
21:01 72 °F /  22.2 °C 50 °F /  10.0 °C 30.1 in /  1017.8 hPa South 3.5 mph /  5.6 km/h 3.5 mph /  5.6 km/h 46 % 0 in /  0.0 mm
21:05 64.4 °F /  18.0 °C 52.3 °F /  11.3 °C 30.1 in /  1019.9 hPa WNW 1 mph /  1.6 km/h 1 mph /  1.6 km/h 65 % 0 in /  0.0 mm
21:06 71.6 °F /  22.0 °C 50.4 °F /  10.2 °C 30.1 in /  1017.8 hPa SW 5.8 mph /  9.3 km/h 5.8 mph /  9.3 km/h 47 % 0 in /  0.0 mm
21:11 71.4 °F /  21.9 °C 50.2 °F /  10.1 °C 30.1 in /  1018.8 hPa SW 5.8 mph /  9.3 km/h 5.8 mph /  9.3 km/h 47 % 0 in /  0.0 mm
21:15 64 °F /  17.8 °C 52.3 °F /  11.3 °C 30.1 in /  1019.9 hPa Calm     66 % 0 in /  0.0 mm
21:16 71.1 °F /  21.7 °C 50.4 °F /  10.2 °C 30.1 in /  1018.8 hPa SW 5.8 mph /  9.3 km/h 5.8 mph /  9.3 km/h 48 % 0 in /  0.0 mm
21:21 70.9 °F /  21.6 °C 50.2 °F /  10.1 °C 30.1 in /  1018.8 hPa SW 3.5 mph /  5.6 km/h 3.5 mph /  5.6 km/h 48 % 0 in /  0.0 mm
21:25 63.7 °F /  17.6 °C 52.2 °F /  11.2 °C 30.1 in /  1019.9 hPa Calm     66 % 0 in /  0.0 mm
21:26 70.7 °F /  21.5 °C 50 °F /  10.0 °C 30.1 in /  1018.8 hPa WSW 3.5 mph /  5.6 km/h 3.5 mph /  5.6 km/h 48 % 0 in /  0.0 mm
21:31 70.3 °F /  21.3 °C 50.4 °F /  10.2 °C 30.1 in /  1018.8 hPa WSW 3.5 mph /  5.6 km/h 3.5 mph /  5.6 km/h 49 % 0 in /  0.0 mm
21:35 63.9 °F /  17.7 °C 52.7 °F /  11.5 °C 30.1 in /  1019.9 hPa Calm   1 mph /  1.6 km/h 67 % 0 in /  0.0 mm
21:36 70.2 °F /  21.2 °C 50.2 °F /  10.1 °C 30.1 in /  1018.8 hPa SW 3.5 mph /  5.6 km/h 3.5 mph /  5.6 km/h 49 % 0 in /  0.0 mm
21:41 70 °F /  21.1 °C 49.8 °F /  9.9 °C 30.1 in /  1018.8 hPa South 3.3 mph /  5.3 km/h 3.3 mph /  5.3 km/h 49 % 0 in /  0.0 mm
21:45 62.8 °F /  17.1 °C 51.3 °F /  10.7 °C 30.1 in /  1019.9 hPa NNW 1 mph /  1.6 km/h 2 mph /  3.2 km/h 66 % 0 in /  0.0 mm
21:46 69.8 °F /  21.0 °C 50.4 °F /  10.2 °C 30.1 in /  1018.8 hPa South 3.5 mph /  5.6 km/h 3.5 mph /  5.6 km/h 50 % 0 in /  0.0 mm
21:51 69.4 °F /  20.8 °C 50.5 °F /  10.3 °C 30.1 in /  1018.8 hPa SSW 2.6 mph /  4.2 km/h 2.6 mph /  4.2 km/h 51 % 0 in /  0.0 mm
21:55 62.6 °F /  17.0 °C 51.1 °F /  10.6 °C 30.1 in /  1019.9 hPa WSW 1 mph /  1.6 km/h 2 mph /  3.2 km/h 66 % 0 in /  0.0 mm
21:56 69.3 °F /  20.7 °C 50.4 °F /  10.2 °C 30.1 in /  1018.8 hPa WSW 3.5 mph /  5.6 km/h 3.5 mph /  5.6 km/h 51 % 0 in /  0.0 mm
22:01 69.1 °F /  20.6 °C 50.7 °F /  10.4 °C 30.1 in /  1018.8 hPa SSW 2.4 mph /  3.9 km/h 2.4 mph /  3.9 km/h 52 % 0 in /  0.0 mm
22:05 62.8 °F /  17.1 °C 51.3 °F /  10.7 °C 30.1 in /  1019.9 hPa WSW 1 mph /  1.6 km/h 2 mph /  3.2 km/h 66 % 0 in /  0.0 mm
22:06 68.9 °F /  20.5 °C 50.5 °F /  10.3 °C 30.1 in /  1018.8 hPa WSW 2.3 mph /  3.7 km/h 2.3 mph /  3.7 km/h 52 % 0 in /  0.0 mm
22:07 68.9 °F /  20.5 °C 50.5 °F /  10.3 °C 30.1 in /  1018.8 hPa West 2.4 mph /  3.9 km/h 2.4 mph /  3.9 km/h 52 % 0 in /  0.0 mm
22:12 68.9 °F /  20.5 °C 50.5 °F /  10.3 °C 30.1 in /  1018.8 hPa WSW 1.2 mph /  1.9 km/h   52 % 0 in /  0.0 mm
22:15 63 °F /  17.2 °C 51.4 °F /  10.8 °C 30.1 in /  1019.9 hPa WSW 1 mph /  1.6 km/h 2 mph /  3.2 km/h 66 % 0 in /  0.0 mm
22:17 68.7 °F /  20.4 °C 50.9 °F /  10.5 °C 30.1 in /  1018.8 hPa West 1.6 mph /  2.6 km/h 1.6 mph /  2.6 km/h 53 % 0 in /  0.0 mm
22:22 68.5 °F /  20.3 °C 50.7 °F /  10.4 °C 30.1 in /  1018.8 hPa Calm     53 % 0 in /  0.0 mm
22:25 63 °F /  17.2 °C 51.4 °F /  10.8 °C 30.1 in /  1019.9 hPa Calm   1 mph /  1.6 km/h 66 % 0 in /  0.0 mm
22:27 68.5 °F /  20.3 °C 50.7 °F /  10.4 °C 30.1 in /  1018.8 hPa SSW 2.3 mph /  3.7 km/h 2.3 mph /  3.7 km/h 53 % 0 in /  0.0 mm
22:32 68.4 °F /  20.2 °C 50.5 °F /  10.3 °C 30.1 in /  1018.8 hPa SW 2.9 mph /  4.7 km/h 2.9 mph /  4.7 km/h 53 % 0 in /  0.0 mm
22:35 63.3 °F /  17.4 °C 51.8 °F /  11.0 °C 30.1 in /  1019.9 hPa SW 1 mph /  1.6 km/h 1 mph /  1.6 km/h 66 % 0 in /  0.0 mm
22:37 68.4 °F /  20.2 °C 50.5 °F /  10.3 °C 30.1 in /  1018.8 hPa SW 3.8 mph /  6.1 km/h 3.8 mph /  6.1 km/h 53 % 0 in /  0.0 mm
22:42 68.4 °F /  20.2 °C 50.5 °F /  10.3 °C 30.1 in /  1018.8 hPa SW 2.6 mph /  4.2 km/h 2.6 mph /  4.2 km/h 53 % 0 in /  0.0 mm
22:45 63.3 °F /  17.4 °C 51.8 °F /  11.0 °C 30.1 in /  1019.9 hPa Calm   1 mph /  1.6 km/h 66 % 0 in /  0.0 mm
22:47 68.2 °F /  20.1 °C 50.4 °F /  10.2 °C 30.1 in /  1018.8 hPa SW 3.5 mph /  5.6 km/h 3.5 mph /  5.6 km/h 53 % 0 in /  0.0 mm
22:52 68 °F /  20.0 °C 50.7 °F /  10.4 °C 30.1 in /  1018.8 hPa WSW 2 mph /  3.2 km/h 2 mph /  3.2 km/h 54 % 0 in /  0.0 mm
22:55 63.3 °F /  17.4 °C 51.8 °F /  11.0 °C 30.1 in /  1018.8 hPa Calm     66 % 0 in /  0.0 mm
22:57 68 °F /  20.0 °C 50.7 °F /  10.4 °C 30.1 in /  1018.8 hPa West 1.2 mph /  1.9 km/h 1.2 mph /  1.9 km/h 54 % 0 in /  0.0 mm
23:02 67.8 °F /  19.9 °C 50.5 °F /  10.3 °C 30.1 in /  1018.8 hPa WSW 2.4 mph /  3.9 km/h 2.4 mph /  3.9 km/h 54 % 0 in /  0.0 mm
23:05 63.1 °F /  17.3 °C 51.6 °F /  10.9 °C 30.1 in /  1018.8 hPa Calm     66 % 0 in /  0.0 mm
23:07 67.8 °F /  19.9 °C 50.5 °F /  10.3 °C 30.1 in /  1019.9 hPa SSW 2.3 mph /  3.7 km/h 2.3 mph /  3.7 km/h 54 % 0 in /  0.0 mm
23:12 67.6 °F /  19.8 °C 50.9 °F /  10.5 °C 30.1 in /  1019.9 hPa WSW 2.3 mph /  3.7 km/h 2.3 mph /  3.7 km/h 55 % 0 in /  0.0 mm
23:15 62.8 °F /  17.1 °C 51.6 °F /  10.9 °C 30.1 in /  1019.9 hPa Calm     67 % 0 in /  0.0 mm
23:17 67.5 °F /  19.7 °C 50.7 °F /  10.4 °C 30.1 in /  1019.9 hPa SW 2.3 mph /  3.7 km/h 2.4 mph /  3.9 km/h 55 % 0 in /  0.0 mm
23:22 67.3 °F /  19.6 °C 50.5 °F /  10.3 °C 30.1 in /  1019.9 hPa WSW 2.4 mph /  3.9 km/h 2.4 mph /  3.9 km/h 55 % 0 in /  0.0 mm
23:25 62.4 °F /  16.9 °C 51.6 °F /  10.9 °C 30.1 in /  1019.9 hPa Calm   1 mph /  1.6 km/h 68 % 0 in /  0.0 mm
23:27 67.1 °F /  19.5 °C 50.9 °F /  10.5 °C 30.1 in /  1019.9 hPa SW 2.3 mph /  3.7 km/h 2.3 mph /  3.7 km/h 56 % 0 in /  0.0 mm
23:32 67.1 °F /  19.5 °C 50.9 °F /  10.5 °C 30.1 in /  1019.9 hPa SW 2.3 mph /  3.7 km/h 2.3 mph /  3.7 km/h 56 % 0 in /  0.0 mm
23:35 61.7 °F /  16.5 °C 51.1 °F /  10.6 °C 30.1 in /  1019.9 hPa SW 1 mph /  1.6 km/h 2 mph /  3.2 km/h 68 % 0 in /  0.0 mm
23:37 66.9 °F /  19.4 °C 51.3 °F /  10.7 °C 30.1 in /  1018.8 hPa WSW 1.2 mph /  1.9 km/h 1.2 mph /  1.9 km/h 57 % 0 in /  0.0 mm
23:42 66.7 °F /  19.3 °C 51.1 °F /  10.6 °C 30.1 in /  1018.8 hPa WSW 2.4 mph /  3.9 km/h 2.9 mph /  4.7 km/h 57 % 0 in /  0.0 mm
23:45 61.9 °F /  16.6 °C 51.6 °F /  10.9 °C 30.1 in /  1019.9 hPa Calm     69 % 0 in /  0.0 mm
23:47 66.7 °F /  19.3 °C 51.1 °F /  10.6 °C 30.1 in /  1018.8 hPa West 2.9 mph /  4.7 km/h 2.9 mph /  4.7 km/h 57 % 0 in /  0.0 mm
23:52 66.7 °F /  19.3 °C 51.4 °F /  10.8 °C 30.1 in /  1019.9 hPa SSW 2.3 mph /  3.7 km/h 2.3 mph /  3.7 km/h 58 % 0 in /  0.0 mm
23:55 61.9 °F /  16.6 °C 51.6 °F /  10.9 °C 30.1 in /  1019.9 hPa Calm     69 % 0 in /  0.0 mm
23:57 66.6 °F /  19.2 °C 51.3 °F /  10.7 °C 30.1 in /  1019.9 hPa SSW 2.3 mph /  3.7 km/h 2.3 mph /  3.7 km/h 58 % 0 in /  0.0 mm
Meteo Sesrovires
Elogis d' Weather Underground - 3.75 mb

Guio original per  Jim McMurry - jmcmurry@mwt.net Adaptat per a la plantilla per  Wim van der Kuil - Leuven-Template.eu

Trobareu la nostra informacio del temps tambe a:

Weather Underground

AWEKAS